createdAt,value
2022-08-22T00:02:00.956Z,101652.77
2022-08-22T00:03:01.116Z,101666.79
2022-08-22T00:03:15.495Z,101675.11
2022-08-22T00:04:39.400Z,101656.51
2022-08-22T00:07:40.613Z,101646.10
2022-08-22T00:10:48.210Z,101658.31
2022-08-22T00:13:35.521Z,101661.11
2022-08-22T00:16:29.816Z,101652.80
2022-08-22T00:19:05.380Z,101643.10
2022-08-22T00:21:38.179Z,101643.10
2022-08-22T00:24:47.969Z,101658.15
2022-08-22T00:27:18.209Z,101659.78
2022-08-22T00:29:51.111Z,101657.00
2022-08-22T00:32:39.805Z,101662.11
2022-08-22T00:35:30.482Z,101656.56
2022-08-22T00:38:11.861Z,101658.55
2022-08-22T00:40:53.643Z,101655.19
2022-08-22T00:43:59.172Z,101655.23
2022-08-22T00:46:40.384Z,101656.06
2022-08-22T00:49:15.908Z,101656.53
2022-08-22T00:52:13.889Z,101661.31
2022-08-22T00:54:52.375Z,101661.02
2022-08-22T00:57:54.341Z,101657.55
2022-08-22T01:00:27.276Z,101647.54
2022-08-22T01:03:33.052Z,101647.54
2022-08-22T01:06:08.940Z,101667.98
2022-08-22T01:08:50.049Z,101670.42
2022-08-22T01:11:46.766Z,101671.92
2022-08-22T01:14:34.834Z,101675.27
2022-08-22T01:17:06.304Z,101669.73
2022-08-22T01:19:54.148Z,101674.03
2022-08-22T01:23:00.015Z,101676.22
2022-08-22T01:26:01.154Z,101673.11
2022-08-22T01:28:53.102Z,101678.23
2022-08-22T01:31:47.792Z,101675.62
2022-08-22T01:34:40.935Z,101674.11
2022-08-22T01:37:13.750Z,101675.71
2022-08-22T01:40:15.216Z,101676.36
2022-08-22T01:43:08.233Z,101672.50
2022-08-22T01:45:52.842Z,101679.09
2022-08-22T01:48:37.250Z,101679.83
2022-08-22T01:51:28.126Z,101677.20
2022-08-22T01:54:04.008Z,101667.17
2022-08-22T01:56:37.110Z,101676.52
2022-08-22T01:59:15.865Z,101672.91
2022-08-22T02:02:05.064Z,101666.02
2022-08-22T02:05:01.322Z,101657.81
2022-08-22T02:07:36.881Z,101657.81
2022-08-22T02:10:10.919Z,101660.63
2022-08-22T02:12:48.775Z,101648.81
2022-08-22T02:15:24.211Z,101662.16
2022-08-22T02:18:12.334Z,101660.98
2022-08-22T02:21:13.226Z,101660.39
2022-08-22T02:23:48.715Z,101657.52
2022-08-22T02:26:26.877Z,101660.04
2022-08-22T02:29:17.286Z,101658.05
2022-08-22T02:31:59.252Z,101661.46
2022-08-22T02:34:59.531Z,101656.14
2022-08-22T02:37:51.744Z,101647.54
2022-08-22T02:40:39.315Z,101635.91
2022-08-22T02:43:23.132Z,101636.06
2022-08-22T02:46:16.597Z,101639.52
2022-08-22T02:48:50.380Z,101642.55
2022-08-22T02:51:26.327Z,101633.55
2022-08-22T02:54:10.735Z,101631.10
2022-08-22T02:56:44.019Z,101631.36
2022-08-22T02:59:19.251Z,101638.75
2022-08-22T03:01:49.450Z,101638.06
2022-08-22T03:04:33.708Z,101645.23
2022-08-22T03:07:24.617Z,101636.23
2022-08-22T03:10:18.021Z,101640.36
2022-08-22T03:12:54.662Z,101637.66
2022-08-22T03:15:34.101Z,101635.44
2022-08-22T03:18:31.268Z,101616.09
2022-08-22T03:21:15.679Z,101616.09
2022-08-22T03:23:51.392Z,101628.91
2022-08-22T03:26:41.702Z,101623.27
2022-08-22T03:29:14.511Z,101633.14
2022-08-22T03:32:07.256Z,101630.92
2022-08-22T03:34:38.600Z,101628.59
2022-08-22T03:37:23.346Z,101630.63
2022-08-22T03:39:55.977Z,101625.27
2022-08-22T03:42:31.484Z,101625.49
2022-08-22T03:45:24.375Z,101610.91
2022-08-22T03:48:22.898Z,101615.11
2022-08-22T03:51:07.525Z,101615.11
2022-08-22T03:54:02.574Z,101631.28
2022-08-22T03:57:03.380Z,101627.17
2022-08-22T03:59:56.750Z,101623.02
2022-08-22T04:02:44.140Z,101627.88
2022-08-22T04:05:38.687Z,101631.52
2022-08-22T04:08:34.761Z,101628.46
2022-08-22T04:11:31.615Z,101616.41
2022-08-22T04:14:25.773Z,101616.41
2022-08-22T04:17:22.269Z,101638.04
2022-08-22T04:20:00.512Z,101627.32
2022-08-22T04:22:55.042Z,101632.30
2022-08-22T04:25:32.996Z,101620.45
2022-08-22T04:28:05.881Z,101611.47
2022-08-22T04:30:41.647Z,101611.47
2022-08-22T04:33:25.945Z,101629.80
2022-08-22T04:36:21.262Z,101628.06
2022-08-22T04:38:56.644Z,101631.71
2022-08-22T04:41:46.212Z,101631.62
2022-08-22T04:44:21.930Z,101628.77
2022-08-22T04:46:57.685Z,101629.86
2022-08-22T04:49:39.404Z,101622.97
2022-08-22T04:52:24.124Z,101625.39
2022-08-22T04:55:28.399Z,101627.52
2022-08-22T04:58:18.716Z,101629.65
2022-08-22T05:00:54.074Z,101628.46
2022-08-22T05:03:26.850Z,101631.33
2022-08-22T05:05:58.869Z,101638.25
2022-08-22T05:08:31.854Z,101636.53
2022-08-22T05:11:05.542Z,101640.72
2022-08-22T05:13:41.185Z,101639.84
2022-08-22T05:16:18.214Z,101650.84
2022-08-22T05:18:51.301Z,101647.06
2022-08-22T05:21:27.019Z,101646.64
2022-08-22T05:23:59.258Z,101646.97
2022-08-22T05:26:30.961Z,101648.86
2022-08-22T05:29:04.001Z,101649.27
2022-08-22T05:31:51.641Z,101642.22
2022-08-22T05:34:28.195Z,101634.77
2022-08-22T05:37:15.565Z,101634.77
2022-08-22T05:39:51.212Z,101650.05
2022-08-22T05:42:32.856Z,101643.13
2022-08-22T05:45:06.642Z,101659.60
2022-08-22T05:47:44.423Z,101663.57
2022-08-22T05:50:25.330Z,101665.73
2022-08-22T05:53:15.832Z,101671.45
2022-08-22T05:56:12.918Z,101669.88
2022-08-22T05:58:45.424Z,101671.39
2022-08-22T06:01:29.659Z,101667.34
2022-08-22T06:04:27.816Z,101665.67
2022-08-22T06:07:06.078Z,101666.50
2022-08-22T06:09:45.222Z,101641.42
2022-08-22T06:12:26.757Z,101641.42
2022-08-22T06:15:15.956Z,101649.58
2022-08-22T06:17:53.352Z,101649.58
2022-08-22T06:20:26.150Z,101667.66
2022-08-22T06:23:00.671Z,101652.64
2022-08-22T06:25:36.101Z,101652.64
2022-08-22T06:28:08.721Z,101670.30
2022-08-22T06:30:39.920Z,101675.03
2022-08-22T06:33:12.863Z,101668.56
2022-08-22T06:36:03.276Z,101675.13
2022-08-22T06:38:35.501Z,101676.73
2022-08-22T06:41:08.711Z,101677.20
2022-08-22T06:43:41.662Z,101684.48
2022-08-22T06:46:16.519Z,101682.25
2022-08-22T06:48:47.440Z,101690.84
2022-08-22T06:51:21.221Z,101688.44
2022-08-22T06:53:56.042Z,101693.59
2022-08-22T06:56:29.451Z,101692.73
2022-08-22T06:59:02.276Z,101694.61
2022-08-22T07:01:36.991Z,101694.28
2022-08-22T07:04:10.208Z,101688.36
2022-08-22T07:06:43.734Z,101672.66
2022-08-22T07:09:25.016Z,101672.66
2022-08-22T07:11:57.867Z,101689.38
2022-08-22T07:14:30.688Z,101692.70
2022-08-22T07:17:04.537Z,101703.12
2022-08-22T07:19:40.301Z,101702.43
2022-08-22T07:22:15.693Z,101704.90
2022-08-22T07:24:48.481Z,101709.17
2022-08-22T07:27:27.189Z,101706.36
2022-08-22T07:30:00.005Z,101704.36
2022-08-22T07:32:43.144Z,101703.89
2022-08-22T07:35:18.748Z,101704.99
2022-08-22T07:37:58.067Z,101705.83
2022-08-22T07:40:37.157Z,101704.17
2022-08-22T07:43:10.228Z,101698.47
2022-08-22T07:45:54.784Z,101699.06
2022-08-22T07:48:44.709Z,101692.61
2022-08-22T07:51:13.410Z,101689.77
2022-08-22T07:53:49.124Z,101686.20
2022-08-22T07:56:24.763Z,101682.09
2022-08-22T07:59:13.185Z,101679.51
2022-08-22T08:01:48.604Z,101682.41
2022-08-22T08:04:24.285Z,101681.08
2022-08-22T08:06:56.136Z,101679.92
2022-08-22T08:09:28.310Z,101671.72
2022-08-22T08:12:00.514Z,101676.91
2022-08-22T08:14:31.900Z,101675.61
2022-08-22T08:17:05.939Z,101670.84
2022-08-22T08:19:38.291Z,101648.89
2022-08-22T08:22:10.070Z,101648.89
2022-08-22T08:24:45.116Z,101663.93
2022-08-22T08:27:35.467Z,101664.84
2022-08-22T08:30:15.597Z,101653.06
2022-08-22T08:32:48.636Z,101660.77
2022-08-22T08:35:27.830Z,101659.30
2022-08-22T08:38:07.672Z,101646.66
2022-08-22T08:40:56.777Z,101647.78
2022-08-22T08:43:48.013Z,101647.78
2022-08-22T08:46:20.827Z,101661.09
2022-08-22T08:49:24.491Z,101659.12
2022-08-22T08:52:13.469Z,101659.12
2022-08-22T08:54:47.239Z,101658.20
2022-08-22T08:57:34.446Z,101655.44
2022-08-22T09:00:15.501Z,101655.53
2022-08-22T09:02:56.299Z,101661.29
2022-08-22T09:05:45.993Z,101651.66
2022-08-22T09:08:41.807Z,101648.55
2022-08-22T09:11:33.882Z,101651.16
2022-08-22T09:14:23.931Z,101648.89
2022-08-22T09:17:04.908Z,101638.80
2022-08-22T09:19:54.524Z,101641.45
2022-08-22T09:22:52.429Z,101638.88
2022-08-22T09:25:38.620Z,101634.23
2022-08-22T09:28:41.598Z,101640.14
2022-08-22T09:31:32.817Z,101636.30
2022-08-22T09:34:25.610Z,101635.23
2022-08-22T09:37:16.317Z,101637.64
2022-08-22T09:40:19.655Z,101630.30
2022-08-22T09:43:11.056Z,101606.19
2022-08-22T09:46:02.024Z,101611.35
2022-08-22T09:48:40.474Z,101611.35
2022-08-22T09:51:33.190Z,101628.06
2022-08-22T09:54:23.873Z,101616.76
2022-08-22T09:57:01.336Z,101614.91
2022-08-22T09:59:53.065Z,101613.20
2022-08-22T10:02:36.520Z,101618.15
2022-08-22T10:05:39.475Z,101610.89
2022-08-22T10:08:11.317Z,101614.31
2022-08-22T10:10:46.973Z,101606.61
2022-08-22T10:13:35.709Z,101606.88
2022-08-22T10:16:23.014Z,101599.94
2022-08-22T10:19:17.992Z,101599.31
2022-08-22T10:22:10.442Z,101599.87
2022-08-22T10:24:49.118Z,101598.69
2022-08-22T10:27:42.848Z,101599.20
2022-08-22T10:30:18.610Z,101589.53
2022-08-22T10:32:51.452Z,101585.75
2022-08-22T10:35:33.907Z,101580.55
2022-08-22T10:38:19.753Z,101579.97
2022-08-22T10:41:09.713Z,101584.12
2022-08-22T10:43:47.714Z,101583.22
2022-08-22T10:49:05.802Z,101586.69
2022-08-22T10:51:46.625Z,101583.36
2022-08-22T10:54:34.226Z,101575.47
2022-08-22T10:57:21.493Z,101582.91
2022-08-22T11:00:01.315Z,101583.45
2022-08-22T11:02:36.744Z,101573.23
2022-08-22T11:05:24.720Z,101555.44
2022-08-22T11:07:58.689Z,101555.44
2022-08-22T11:10:37.306Z,101540.91
2022-08-22T11:13:18.709Z,101540.91
2022-08-22T11:16:18.719Z,101566.61
2022-08-22T11:19:14.618Z,101556.09
2022-08-22T11:21:57.704Z,101551.22
2022-08-22T11:24:53.912Z,101550.49
2022-08-22T11:27:39.681Z,101548.44
2022-08-22T11:30:18.115Z,101548.44
2022-08-22T11:33:03.453Z,101552.37
2022-08-22T11:35:39.496Z,101555.69
2022-08-22T11:38:32.675Z,101554.61
2022-08-22T11:41:06.834Z,101556.30
2022-08-22T11:43:45.781Z,101548.11
2022-08-22T11:46:20.284Z,101540.84
2022-08-22T11:49:12.947Z,101535.75
2022-08-22T11:52:04.811Z,101534.81
2022-08-22T11:55:02.925Z,101538.74
2022-08-22T11:57:35.777Z,101531.67
2022-08-22T12:00:26.616Z,101531.83
2022-08-22T12:03:12.805Z,101536.62
2022-08-22T12:05:46.300Z,101532.23
2022-08-22T12:08:36.447Z,101531.25
2022-08-22T12:11:12.647Z,101531.25
2022-08-22T12:14:05.862Z,101527.50
2022-08-22T12:16:28.193Z,101533.98
2022-08-22T12:19:01.529Z,101526.18
2022-08-22T12:21:36.768Z,101525.20
2022-08-22T12:24:31.438Z,101524.45
2022-08-22T12:30:13.800Z,101521.90
2022-08-22T12:32:45.844Z,101501.47
2022-08-22T12:35:29.956Z,101501.47
2022-08-22T12:38:27.971Z,101497.78
2022-08-22T12:41:08.434Z,101497.78
2022-08-22T12:43:43.507Z,101517.28
2022-08-22T12:46:28.807Z,101520.24
2022-08-22T12:49:16.265Z,101520.79
2022-08-22T12:52:21.681Z,101514.95
2022-08-22T12:55:16.651Z,101522.73
2022-08-22T12:58:01.285Z,101511.70
2022-08-22T13:00:34.766Z,101505.13
2022-08-22T13:03:07.994Z,101515.23
2022-08-22T13:05:42.023Z,101508.02
2022-08-22T13:08:24.921Z,101502.33
2022-08-22T13:11:04.782Z,101511.66
2022-08-22T13:13:44.816Z,101496.39
2022-08-22T13:16:19.647Z,101502.59
2022-08-22T13:18:57.875Z,101499.56
2022-08-22T13:21:36.486Z,101502.05
2022-08-22T13:24:10.465Z,101504.54
2022-08-22T13:26:49.347Z,101493.28
2022-08-22T13:29:39.368Z,101498.30
2022-08-22T13:32:02.696Z,101499.28
2022-08-22T13:34:44.871Z,101496.21
2022-08-22T13:37:24.468Z,101492.78
2022-08-22T13:39:55.884Z,101492.67
2022-08-22T13:42:30.752Z,101487.87
2022-08-22T13:45:05.153Z,101484.77
2022-08-22T13:47:39.309Z,101488.39
2022-08-22T13:50:13.902Z,101465.77
2022-08-22T13:52:58.379Z,101465.77
2022-08-22T13:55:49.240Z,101479.48
2022-08-22T13:58:30.536Z,101470.22
2022-08-22T14:01:25.494Z,101463.22
2022-08-22T14:03:58.630Z,101463.22
2022-08-22T14:06:51.694Z,101482.02
2022-08-22T14:09:31.467Z,101480.63
2022-08-22T14:12:13.503Z,101477.75
2022-08-22T14:14:46.453Z,101474.07
2022-08-22T14:17:28.011Z,101470.28
2022-08-22T14:20:32.491Z,101470.63
2022-08-22T14:22:59.927Z,101471.94
2022-08-22T14:25:29.097Z,101469.53
2022-08-22T14:28:07.834Z,101468.89
2022-08-22T14:30:58.189Z,101461.62
2022-08-22T14:33:46.563Z,101450.02
2022-08-22T14:36:28.424Z,101450.02
2022-08-22T14:39:01.237Z,101462.55
2022-08-22T14:41:55.632Z,101462.98
2022-08-22T14:44:14.730Z,101450.81
2022-08-22T14:46:53.816Z,101453.00
2022-08-22T14:49:28.874Z,101429.66
2022-08-22T14:52:04.485Z,101429.66
2022-08-22T14:54:35.868Z,101446.75
2022-08-22T14:57:11.183Z,101443.55
2022-08-22T14:59:50.008Z,101449.27
2022-08-22T15:02:31.557Z,101442.58
2022-08-22T15:05:05.459Z,101443.59
2022-08-22T15:07:37.501Z,101441.30
2022-08-22T15:10:22.996Z,101438.91
2022-08-22T15:12:56.028Z,101437.30
2022-08-22T15:15:53.287Z,101439.59
2022-08-22T15:18:33.608Z,101432.63
2022-08-22T15:21:12.383Z,101434.39
2022-08-22T15:23:46.957Z,101425.81
2022-08-22T15:26:28.097Z,101427.38
2022-08-22T15:29:06.963Z,101428.29
2022-08-22T15:31:41.654Z,101430.16
2022-08-22T15:34:18.002Z,101424.64
2022-08-22T15:37:08.487Z,101419.31
2022-08-22T15:39:40.220Z,101425.31
2022-08-22T15:42:11.857Z,101421.25
2022-08-22T15:44:44.340Z,101423.95
2022-08-22T15:47:41.458Z,101423.42
2022-08-22T15:50:15.780Z,101426.43
2022-08-22T15:53:08.389Z,101413.73
2022-08-22T15:55:38.775Z,101413.73
2022-08-22T15:58:13.037Z,101416.81
2022-08-22T16:00:49.301Z,101414.38
2022-08-22T16:03:28.091Z,101413.22
2022-08-22T16:06:01.043Z,101410.40
2022-08-22T16:08:39.529Z,101408.81
2022-08-22T16:11:24.143Z,101408.18
2022-08-22T16:14:25.569Z,101408.05
2022-08-22T16:17:03.828Z,101405.16
2022-08-22T16:19:35.534Z,101404.23
2022-08-22T16:22:08.874Z,101403.72
2022-08-22T16:24:59.655Z,101408.31
2022-08-22T16:27:31.220Z,101401.86
2022-08-22T16:30:06.882Z,101404.72
2022-08-22T16:32:37.909Z,101408.36
2022-08-22T16:35:07.734Z,101402.16
2022-08-22T16:37:46.067Z,101395.09
2022-08-22T16:40:19.055Z,101390.82
2022-08-22T16:42:51.890Z,101384.50
2022-08-22T16:45:39.599Z,101384.64
2022-08-22T16:48:24.646Z,101373.84
2022-08-22T16:51:09.199Z,101377.34
2022-08-22T16:54:01.093Z,101377.86
2022-08-22T16:56:51.510Z,101369.02
2022-08-22T16:59:26.759Z,101368.19
2022-08-22T17:02:18.861Z,101366.08
2022-08-22T17:05:13.814Z,101368.89
2022-08-22T17:07:55.327Z,101361.20
2022-08-22T17:10:48.501Z,101361.63
2022-08-22T17:13:26.525Z,101367.41
2022-08-22T17:16:15.468Z,101353.57
2022-08-22T17:18:48.287Z,101353.57
2022-08-22T17:21:32.494Z,101368.71
2022-08-22T17:24:08.281Z,101360.36
2022-08-22T17:26:55.278Z,101342.81
2022-08-22T17:29:34.027Z,101342.81
2022-08-22T17:32:14.856Z,101351.19
2022-08-22T17:34:53.350Z,101345.94
2022-08-22T17:37:54.709Z,101345.16
2022-08-22T17:40:52.914Z,101343.95
2022-08-22T17:43:33.531Z,101346.83
2022-08-22T17:46:27.006Z,101352.13
2022-08-22T17:49:02.415Z,101346.78
2022-08-22T17:51:39.831Z,101363.69
2022-08-22T17:54:33.953Z,101355.41
2022-08-22T17:57:06.841Z,101359.33
2022-08-22T17:59:39.652Z,101364.58
2022-08-22T18:02:13.677Z,101362.19
2022-08-22T18:04:52.530Z,101361.68
2022-08-22T18:07:33.718Z,101362.14
2022-08-22T18:10:34.714Z,101372.20
2022-08-22T18:13:13.031Z,101369.23
2022-08-22T18:15:48.627Z,101375.20
2022-08-22T18:18:30.115Z,101376.73
2022-08-22T18:21:01.799Z,101381.08
2022-08-22T18:23:43.599Z,101382.94
2022-08-22T18:26:31.162Z,101388.48
2022-08-22T18:29:15.531Z,101391.81
2022-08-22T18:31:54.165Z,101386.28
2022-08-22T18:34:43.611Z,101387.16
2022-08-22T18:37:36.798Z,101390.53
2022-08-22T18:40:13.943Z,101393.67
2022-08-22T18:42:52.745Z,101387.20
2022-08-22T18:45:50.654Z,101387.20
2022-08-22T18:48:25.554Z,101401.30
2022-08-22T18:51:14.366Z,101405.38
2022-08-22T18:53:59.034Z,101406.84
2022-08-22T18:56:35.444Z,101408.14
2022-08-22T18:59:09.028Z,101412.42
2022-08-22T19:02:13.256Z,101415.08
2022-08-22T19:05:08.680Z,101416.15
2022-08-22T19:07:44.249Z,101417.96
2022-08-22T19:10:27.722Z,101426.73
2022-08-22T19:13:27.696Z,101427.84
2022-08-22T19:16:18.282Z,101433.16
2022-08-22T19:19:08.443Z,101433.31
2022-08-22T19:21:57.577Z,101434.98
2022-08-22T19:24:30.158Z,101446.97
2022-08-22T19:27:31.330Z,101445.39
2022-08-22T19:30:00.688Z,101450.68
2022-08-22T19:32:51.438Z,101456.57
2022-08-22T19:35:32.335Z,101451.27
2022-08-22T19:38:05.163Z,101450.73
2022-08-22T19:40:56.139Z,101444.88
2022-08-22T19:43:30.651Z,101448.77
2022-08-22T19:46:06.189Z,101449.03
2022-08-22T19:48:52.515Z,101449.31
2022-08-22T19:51:27.913Z,101452.62
2022-08-22T19:54:18.417Z,101455.44
2022-08-22T19:57:11.592Z,101447.88
2022-08-22T19:59:51.071Z,101447.88
2022-08-22T20:02:26.977Z,101449.24
2022-08-22T20:05:00.174Z,101450.30
2022-08-22T20:07:44.466Z,101448.11
2022-08-22T20:10:43.996Z,101447.27
2022-08-22T20:13:22.815Z,101445.58
2022-08-22T20:16:10.308Z,101425.77
2022-08-22T20:19:07.296Z,101414.97
2022-08-22T20:21:58.853Z,101414.97
2022-08-22T20:24:40.524Z,101435.88
2022-08-22T20:27:30.664Z,101438.62
2022-08-22T20:30:15.188Z,101437.78
2022-08-22T20:32:50.696Z,101433.94
2022-08-22T20:35:23.469Z,101435.05
2022-08-22T20:38:07.405Z,101442.56
2022-08-22T20:40:56.254Z,101416.66
2022-08-22T20:43:29.218Z,101416.66
2022-08-22T20:46:04.227Z,101438.94
2022-08-22T20:48:40.223Z,101437.55
2022-08-22T20:51:12.284Z,101432.55
2022-08-22T20:53:42.319Z,101438.13
2022-08-22T20:56:12.127Z,101434.22
2022-08-22T20:58:43.591Z,101434.52
2022-08-22T21:01:15.697Z,101437.31
2022-08-22T21:03:51.975Z,101438.98
2022-08-22T21:06:34.350Z,101438.13
2022-08-22T21:09:36.596Z,101430.33
2022-08-22T21:12:09.341Z,101428.11
2022-08-22T21:14:42.294Z,101428.67
2022-08-22T21:17:23.796Z,101426.47
2022-08-22T21:19:53.629Z,101425.34
2022-08-22T21:22:30.059Z,101426.46
2022-08-22T21:25:01.812Z,101428.73
2022-08-22T21:27:34.119Z,101434.84
2022-08-22T21:30:06.631Z,101433.14
2022-08-22T21:32:53.623Z,101431.21
2022-08-22T21:35:32.100Z,101425.94
2022-08-22T21:38:02.899Z,101430.91
2022-08-22T21:40:35.806Z,101424.52
2022-08-22T21:43:11.084Z,101426.17
2022-08-22T21:45:44.023Z,101421.71
2022-08-22T21:48:40.706Z,101418.40
2022-08-22T21:51:34.246Z,101421.16
2022-08-22T21:54:24.734Z,101419.48
2022-08-22T21:59:59.762Z,101403.88
2022-08-22T22:02:36.498Z,101422.00
2022-08-22T22:05:11.339Z,101397.72
2022-08-22T22:07:43.794Z,101397.72
2022-08-22T22:10:16.340Z,101423.34
2022-08-22T22:12:48.248Z,101425.02
2022-08-22T22:15:21.272Z,101424.96
2022-08-22T22:17:51.276Z,101425.80
2022-08-22T22:20:23.886Z,101426.37
2022-08-22T22:22:53.655Z,101425.23
2022-08-22T22:25:40.008Z,101422.17
2022-08-22T22:27:55.688Z,101422.50
2022-08-22T22:30:27.661Z,101428.37
2022-08-22T22:32:57.223Z,101427.51
2022-08-22T22:35:27.465Z,101427.51
2022-08-22T22:37:57.745Z,101426.66
2022-08-22T22:40:27.379Z,101425.31
2022-08-22T22:42:57.211Z,101424.41
2022-08-22T22:45:27.040Z,101422.78
2022-08-22T22:47:56.714Z,101403.77
2022-08-22T22:50:26.398Z,101403.77
2022-08-22T22:52:56.173Z,101429.38
2022-08-22T22:55:26.410Z,101420.90
2022-08-22T22:57:59.034Z,101427.96
2022-08-22T23:00:30.755Z,101424.80
2022-08-22T23:03:02.756Z,101422.80
2022-08-22T23:05:32.672Z,101418.62
2022-08-22T23:08:03.567Z,101417.80
2022-08-22T23:10:34.379Z,101418.91
2022-08-22T23:13:06.586Z,101425.49
2022-08-22T23:15:37.633Z,101423.83
2022-08-22T23:18:07.423Z,101422.10
2022-08-22T23:20:36.923Z,101408.05
2022-08-22T23:23:06.695Z,101408.05
2022-08-22T23:25:36.469Z,101419.26
2022-08-22T23:28:08.027Z,101422.81
2022-08-22T23:30:37.800Z,101426.98
2022-08-22T23:33:07.871Z,101425.59
2022-08-22T23:35:37.632Z,101429.94
2022-08-22T23:38:09.477Z,101437.45
2022-08-22T23:40:39.233Z,101429.43
2022-08-22T23:43:09.094Z,101428.21
2022-08-22T23:45:38.850Z,101426.82
2022-08-22T23:48:09.515Z,101423.50
2022-08-22T23:50:39.287Z,101420.65
2022-08-22T23:53:09.060Z,101419.81
2022-08-22T23:55:39.404Z,101418.14
2022-08-22T23:58:11.349Z,101406.96
